Boulder City, Nevada Weather observations

Data are for observation ending at time listed.
 Day   Time    Ave.   Ave.  Ave.  Vector   Max.   Stn.    Total    Solar   Ave.  
  of    of     Air    Rel.  Wind   Wind    Wind   Baro.  Precip.   Rad.    Soil  
Year   Day     Temp.  Hum.  Speed  Dir.    Gust   Pres.                    Temp. 
2026   (PST)    F      %     mph   deg.    mph     mb.     in.     W/m2     F   
------------------------------------------------------------------------------
 127    2:50   70.1    12    1.7   328      3.8   931.8    0.00       0    80.5
 127    3:00   69.3    12    1.8   331      3.8   931.8    0.00       0    80.4
 127    3:10   69.3    12    0.9   326      2.0   931.8    0.00       0    80.3
 127    3:20   68.6    13    1.9   339      3.4   931.7    0.00       0    80.2
 127    3:30   69.2    12    1.8   349      3.5   931.6    0.00       0    80.1
 127    3:40   69.2    12    1.6   347      3.9   931.5    0.00       0    79.9
 127    3:50   69.6    12    1.5   343      2.5   931.6    0.00       0    79.8
 127    4:00   68.9    12    0.6   208      1.7   931.6    0.00       0    79.7
 127    4:10   68.0    13    0.8   176      1.8   931.7    0.00       0    79.6
 127    4:20   68.1    13    1.3   279      2.5   931.7    0.00       0    79.5
 127    4:30   67.3    14    1.1   297      1.9   931.7    0.00       1    79.3
 127    4:40   66.9    15    0.7   287      1.8   931.7    0.00       3    79.2
 127    4:50   66.4    15    1.3   291      2.6   931.9    0.00       7    79.1
 127    5:00   66.1    15    1.1   257      1.9   931.8    0.00      19    79.0
 127    5:10   66.7    15    1.6   228      2.3   931.9    0.00      21    78.8
 127    5:20   68.6    14    1.2   266      2.5   931.9    0.00      27    78.7
 127    5:30   70.6    14    0.3   115      2.5   932.0    0.00      31    78.6
 127    5:40   73.1    13    0.1    39      1.2   932.1    0.00     109    78.5
 127    5:50   74.4    12    0.2   352      1.1   932.4    0.00     186    78.3
 127    6:00   77.5    11    0.1    12      1.0   932.5    0.00     221    78.2
 127    6:10   79.5    10    0.2    68      1.4   932.8    0.00     256    78.0
 127    6:20   77.8    11    2.0    66      3.9   933.0    0.00     291    77.9
 127    6:30   76.4    11    1.7    37      3.6   933.2    0.00     325    77.7
 127    6:40   77.1    11    1.7    32      4.7   933.4    0.00     360    77.6
 127    6:50   77.0    11    1.9    31      3.5   933.5    0.00     395    77.5
 127    7:00   77.5    11    1.9    33      3.8   933.6    0.00     429    77.5
 127    7:10   77.8    11    2.3    52      4.6   933.7    0.00     463    77.4
 127    7:20   77.3    11    2.3    29      4.9   933.8    0.00     497    77.3
 127    7:30   77.0    12    2.5    45      5.3   933.8    0.00     529    77.3
 127    7:40   77.9    12    1.9    37      5.0   933.9    0.00     560    77.2
 127    7:50   78.7    11    2.3    39      6.6   933.9    0.00     592    77.2
 127    8:00   78.9    11    2.6    43      4.9   933.9    0.00     621    77.2
 127    8:10   78.8    11    3.2    44      6.9   933.9    0.00     650    77.3
 127    8:20   79.3    10    2.8    26      7.1   933.9    0.00     678    77.4
 127    8:30   79.5    10    3.8     8      7.9   933.9    0.00     704    77.4
 127    8:40   79.3    10    4.5    24      8.4   933.9    0.00     729    77.5
 127    8:50   79.8    10    4.0    24      9.2   933.9    0.00     754    77.6
 127    9:00   80.2    10    4.3    20      8.7   933.8    0.00     777    77.8
 127    9:10   80.4     9    4.0    21      8.1   933.7    0.00     799    77.9
 127    9:20   80.7     9    4.4    27      8.4   933.7    0.00     744    78.1
 127    9:30   81.1     9    4.2    37      8.6   933.6    0.00     501    78.3
 127    9:40   81.7     9    3.7    21      6.9   933.7    0.00     658    78.5
 127    9:50   82.1     9    3.8    31      8.9   933.7    0.00     705    78.7
 127   10:00   81.9     8    3.8    44      7.1   933.6    0.00     866    78.9
 127   10:10   82.6     8    3.7    22      9.0   933.6    0.00     891    79.2
 127   10:20   82.5     8    3.7    25      6.6   933.5    0.00     894    79.4
 127   10:30   83.0     8    3.0    31      7.1   933.4    0.00     904    79.7
 127   10:40   84.2     8    2.4    23      6.5   933.3    0.00     910    80.0
 127   10:50   83.7     8    4.3    12      6.6   933.1    0.00     919    80.2
 127   11:00   84.9     7    2.9    34      7.5   932.9    0.00     852    80.5
 127   11:10   85.4     8    2.7     7      6.3   932.8    0.00     885    80.8
 127   11:20   86.7     8    2.6    41      6.4   932.6    0.00     896    81.2
 127   11:30   86.8     8    3.8    68      7.2   932.5    0.00     965    81.5
 127   11:40   86.7     8    3.9    22      9.0   932.3    0.00     965    81.8
 127   11:50   86.6     8    3.0    51      9.1   932.2    0.00     962    82.2
 127   12:00   86.8     8    3.8    52      9.7   932.1    0.00     958    82.5
 127   12:10   87.3     8    4.8    23      8.8   931.9    0.00     952    82.9
 127   12:20   87.7     8    4.0    45     10.2   931.8    0.00     945    83.2
 127   12:30   88.1     8    4.9    14      8.3   931.6    0.00     937    83.6
 127   12:40   88.1     8    5.1    24     10.1   931.5    0.00     925    84.0
 127   12:50   88.2     8    4.4     3     13.4   931.3    0.00     913    84.3
 127   13:00   88.3     8    4.2    14      9.2   931.2    0.00     898    84.7
 127   13:10   89.0     9    4.2    24     10.7   931.0    0.00     882    85.0
 127   13:20   89.2     9    3.2    59      8.3   930.9    0.00     864    85.4
 127   13:30   89.6     9    3.8     4      7.5   930.8    0.00     845    85.8
 127   13:40   89.3     9    3.4    13     11.5   930.7    0.00     825    86.2
 127   13:50   89.8     9    3.7    21      7.4   930.6    0.00     804    86.5
 127   14:00   89.5     9    4.5    12     11.0   930.5    0.00     782    86.8
 127   14:10   89.7     9    3.8    11      8.9   930.4    0.00     758    87.2
 127   14:20   89.9     9    4.7    15     11.2   930.2    0.00     733    87.4
 127   14:30   89.9     9    4.1    24      9.1   930.1    0.00     708    87.7
 127   14:40   89.9     9    4.6     6      9.3   929.9    0.00     680    88.0
 127   14:50   90.4     8    4.5    53      9.4   929.7    0.00     651    88.2
 127   15:00   90.5     8    3.5    32      9.3   929.6    0.00     622    88.5
 127   15:10   91.1     8    5.2    10     10.2   929.5    0.00     593    88.7
 127   15:20   90.7     8    4.1    14     10.3   929.4    0.00     561    89.0
 127   15:30   90.7     8    4.3    17      8.1   929.3    0.00     529    89.1
 127   15:40   90.7     8    3.4    17      7.3   929.2    0.00     497    89.3
 127   15:50   91.0     8    3.5    21      7.5   929.2    0.00     463    89.5
 127   16:00   90.9     9    3.5     7      7.5   929.1    0.00     430    89.5
 127   16:10   91.4     8    3.1    19      8.9   929.0    0.00     397    89.6
 127   16:20   91.1     8    2.4    11      5.3   929.0    0.00     362    89.8
 127   16:30   91.5     8    3.1    42      6.6   928.9    0.00     329    89.8
 127   16:40   90.6     8    3.0    36      6.1   929.0    0.00     295    89.9
 127   16:50   90.5     9    3.2    10      5.8   928.9    0.00     263    89.9
 127   17:00   90.6     9    2.9    34      6.2   928.8    0.00     230    90.0
 127   17:10   90.2     9    2.4    12      5.0   928.6    0.00     199    90.0
 127   17:20   89.0     9    3.5     9      7.4   928.4    0.00     168    90.0
 127   17:30   88.5     9    3.5     3      7.8   928.3    0.00     140    89.9
 127   17:40   88.2     9    3.4   349      5.3   928.2    0.00     112    89.9
 127   17:50   87.7    10    1.8     2      3.5   928.1    0.00      67    89.9
 127   18:00   87.4     9    1.1   360      2.3   928.0    0.00      23    89.9
 127   18:10   86.7    10    1.9   333      2.9   927.9    0.00      18    89.9
 127   18:20   85.9    10    0.7   321      1.9   927.8    0.00      13    89.8
 127   18:30   85.2    10    1.1   281      2.0   927.8    0.00       8    89.8
 127   18:40   84.4    10    1.5   208      3.1   927.8    0.00       3    89.7
 127   18:50   84.1    10    2.0   217      2.9   927.8    0.00       1    89.7
 127   19:00   84.1    10    1.1   255      3.1   927.8    0.00       0    89.6
 127   19:10   84.2    10    2.1   252      3.4   927.8    0.00       0    89.5
 127   19:20   83.8    10    1.3   262      3.1   927.9    0.00       0    89.5
 127   19:30   83.1    10    2.2   223      3.3   928.0    0.00       0    89.3
 127   19:40   81.9    11    1.7   206      2.6   928.0    0.00       0    89.2
 127   19:50   82.4    11    2.0   226      2.9   928.0    0.00       0    89.1
 127   20:00   82.9    10    2.8   246      4.8   928.1    0.00       0    89.0
 127   20:10   83.3    10    3.0   240      4.2   928.1    0.00       0    88.9
 127   20:20   83.0    10    2.5   221      4.4   928.2    0.00       0    88.8
 127   20:30   82.6    10    2.8   210      4.7   928.2    0.00       0    88.6
 127   20:40   82.4    10    3.6   192      7.5   928.3    0.00       0    88.5
 127   20:50   81.6    11    3.2   208      4.4   928.3    0.00       0    88.4
 127   21:00   80.5    11    3.7   211      5.0   928.3    0.00       0    88.2
 127   21:10   80.0    11    3.3   197      4.7   928.3    0.00       0    88.1
 127   21:20   79.1    12    3.5   195      5.3   928.3    0.00       0    88.0
 127   21:30   78.7    12    3.1   197      4.9   928.2    0.00       0    87.9
 127   21:40   78.7    12    3.1   211      4.2   928.1    0.00       0    87.7
 127   21:50   79.9    11    3.7   230      6.4   928.1    0.00       0    87.6
 127   22:00   81.1    10    4.7   236      7.2   928.1    0.00       0    87.4
 127   22:10   81.3    10    5.0   240      7.3   928.0    0.00       0    87.3
 127   22:20   81.4    10    5.3   240      7.5   928.1    0.00       0    87.2
 127   22:30   81.3    10    5.0   233      8.2   928.2    0.00       0    87.0
 127   22:40   81.2    10    5.2   235      8.0   928.2    0.00       0    86.8
 127   22:50   81.5    10    5.7   236      9.0   928.2    0.00       0    86.7
 127   23:00   81.5    10    5.5   234      8.5   928.1    0.00       0    86.6
 127   23:10   81.2    10    5.6   236      8.1   928.2    0.00       0    86.4
 127   23:20   81.0    10    5.5   234      7.6   928.1    0.00       0    86.3
 127   23:30   80.8    10    5.1   228      8.3   928.2    0.00       0    86.1
 127   23:40   80.3    10    4.6   220      7.3   928.2    0.00       0    86.0
 127   23:50   79.8    10    4.1   210      6.1   928.2    0.00       0    85.8
 128    0:00   79.2    11    3.6   201      5.6   928.1    0.00       0    85.7
 128    0:10   77.7    11    3.4   199      4.8   928.1    0.00       0    85.6
 128    0:20   77.2    11    3.7   206      5.5   928.0    0.00       0    85.5
 128    0:30   78.3    11    4.9   221      6.6   927.9    0.00       0    85.3
 128    0:40   79.0    11    5.3   218      7.2   927.9    0.00       0    85.2
 128    0:50   78.9    11    5.2   221      7.2   927.9    0.00       0    85.1
 128    1:00   78.9    11    4.9   226      6.8   927.8    0.00       0    84.9
 128    1:10   78.4    11    5.4   222      6.7   927.7    0.00       0    84.8
 128    1:20   78.1    11    5.6   219      7.1   927.7    0.00       0    84.7
 128    1:30   78.1    11    5.4   223      7.5   927.7    0.00       0    84.6
 128    1:40   77.8    11    4.6   229      6.1   927.7    0.00       0    84.4
 128    1:50   77.9    11    4.7   226      6.5   927.8    0.00       0    84.3
 128    2:00   77.4    12    4.5   211      6.6   927.8    0.00       0    84.2
 128    2:10   77.4    12    4.8   224      6.5   927.9    0.00       0    84.1
 128    2:20   78.3    12    5.0   233      7.6   927.9    0.00       0    83.9
 128    2:30   78.5    12    5.1   228      6.9   928.0    0.00       0    83.8
 128    2:40   78.2    12    5.8   224      7.7   927.9    0.00       0    83.7

Return to Boulder City, Nevada graphs page.


Western Regional Climate Center,wrcc@dri.edu